sensor_id;sensor_type;location;lat;lon;timestamp;temperature;humidity
23723;DHT22;12042;52.136;5.584;2022-11-20T06:37:32;-3.70;99.90
23723;DHT22;12042;52.136;5.584;2022-11-20T06:39:57;-3.70;99.90
23723;DHT22;12042;52.136;5.584;2022-11-20T06:42:23;-3.80;99.90
23723;DHT22;12042;52.136;5.584;2022-11-20T06:44:48;-4.00;99.90
23723;DHT22;12042;52.136;5.584;2022-11-20T06:47:14;-4.00;99.90
23723;DHT22;12042;52.136;5.584;2022-11-20T06:49:39;-4.10;99.90
23723;DHT22;12042;52.136;5.584;2022-11-20T06:52:05;-4.10;99.90
23723;DHT22;12042;52.136;5.584;2022-11-20T06:54:30;-4.10;99.90
23723;DHT22;12042;52.136;5.584;2022-11-20T06:56:56;-3.90;99.90
23723;DHT22;12042;52.136;5.584;2022-11-20T06:59:22;-3.90;99.90
23723;DHT22;12042;52.136;5.584;2022-11-20T07:01:47;-3.90;99.90
23723;DHT22;12042;52.136;5.584;2022-11-20T07:04:13;-3.90;99.90
23723;DHT22;12042;52.136;5.584;2022-11-20T07:06:38;-4.10;99.90
23723;DHT22;12042;52.136;5.584;2022-11-20T07:09:04;-4.10;99.90
23723;DHT22;12042;52.136;5.584;2022-11-20T07:11:29;-4.10;99.90
23723;DHT22;12042;52.136;5.584;2022-11-20T07:13:56;-4.10;99.90
23723;DHT22;12042;52.136;5.584;2022-11-20T07:16:22;-4.20;99.90
23723;DHT22;12042;52.136;5.584;2022-11-20T07:18:47;-4.30;99.90
23723;DHT22;12042;52.136;5.584;2022-11-20T07:21:13;-4.30;99.90
23723;DHT22;12042;52.136;5.584;2022-11-20T07:23:39;-4.30;99.90
23723;DHT22;12042;52.136;5.584;2022-11-20T07:26:06;-4.40;99.90
23723;DHT22;12042;52.136;5.584;2022-11-20T07:28:32;-4.40;99.90
23723;DHT22;12042;52.136;5.584;2022-11-20T07:30:57;-4.40;99.90
23723;DHT22;12042;52.136;5.584;2022-11-20T07:33:23;-4.30;99.90
23723;DHT22;12042;52.136;5.584;2022-11-20T07:35:48;-4.30;99.90
23723;DHT22;12042;52.136;5.584;2022-11-20T07:38:14;-4.30;99.90
23723;DHT22;12042;52.136;5.584;2022-11-20T07:40:40;-4.30;99.90
23723;DHT22;12042;52.136;5.584;2022-11-20T07:43:06;-4.20;99.90
23723;DHT22;12042;52.136;5.584;2022-11-20T07:45:31;-4.10;99.90
23723;DHT22;12042;52.136;5.584;2022-11-20T07:47:57;-4.10;99.90
23723;DHT22;12042;52.136;5.584;2022-11-20T07:50:22;-3.90;99.90
23723;DHT22;12042;52.136;5.584;2022-11-20T07:52:48;-4.00;99.90
23723;DHT22;12042;52.136;5.584;2022-11-20T07:55:14;-3.70;99.90
23723;DHT22;12042;52.136;5.584;2022-11-20T07:57:39;-3.60;99.90
23723;DHT22;12042;52.136;5.584;2022-11-20T08:00:07;-3.60;99.90
23723;DHT22;12042;52.136;5.584;2022-11-20T08:02:40;-3.50;99.90
23723;DHT22;12042;52.136;5.584;2022-11-20T08:05:07;-3.30;99.90
23723;DHT22;12042;52.136;5.584;2022-11-20T08:07:40;-3.20;99.90
23723;DHT22;12042;52.136;5.584;2022-11-20T08:10:07;-3.00;99.90
23723;DHT22;12042;52.136;5.584;2022-11-20T08:12:33;-2.90;99.90
23723;DHT22;12042;52.136;5.584;2022-11-20T08:15:17;-2.90;99.90
23723;DHT22;12042;52.136;5.584;2022-11-20T08:17:43;-2.80;99.90
23723;DHT22;12042;52.136;5.584;2022-11-20T08:20:09;-2.80;99.90
23723;DHT22;12042;52.136;5.584;2022-11-20T08:22:35;-2.70;99.90
23723;DHT22;12042;52.136;5.584;2022-11-20T08:25:01;-2.70;99.90
23723;DHT22;12042;52.136;5.584;2022-11-20T08:27:26;-2.70;99.90
23723;DHT22;12042;52.136;5.584;2022-11-20T08:29:52;-2.70;99.90
23723;DHT22;12042;52.136;5.584;2022-11-20T08:32:18;-2.70;99.90
23723;DHT22;12042;52.136;5.584;2022-11-20T08:34:43;-2.60;99.90
23723;DHT22;12042;52.136;5.584;2022-11-20T08:37:09;-2.50;99.90
23723;DHT22;12042;52.136;5.584;2022-11-20T08:39:34;-2.40;99.90
23723;DHT22;12042;52.136;5.584;2022-11-20T08:42:00;-2.40;99.90
23723;DHT22;12042;52.136;5.584;2022-11-20T08:44:26;-2.30;99.90
23723;DHT22;12042;52.136;5.584;2022-11-20T08:46:51;-2.20;99.90
23723;DHT22;12042;52.136;5.584;2022-11-20T08:49:17;-2.10;99.90
23723;DHT22;12042;52.136;5.584;2022-11-20T08:51:43;-2.00;99.90
23723;DHT22;12042;52.136;5.584;2022-11-20T08:54:09;-2.00;99.90
23723;DHT22;12042;52.136;5.584;2022-11-20T08:56:34;-1.90;99.90
23723;DHT22;12042;52.136;5.584;2022-11-20T08:59:00;-1.80;99.90
23723;DHT22;12042;52.136;5.584;2022-11-20T09:01:26;-1.70;99.90
23723;DHT22;12042;52.136;5.584;2022-11-20T09:03:54;-1.70;99.90
23723;DHT22;12042;52.136;5.584;2022-11-20T09:06:20;-1.70;99.90
23723;DHT22;12042;52.136;5.584;2022-11-20T09:08:45;-1.70;99.90
23723;DHT22;12042;52.136;5.584;2022-11-20T09:11:11;-1.60;99.90
23723;DHT22;12042;52.136;5.584;2022-11-20T09:13:37;-1.50;99.90
23723;DHT22;12042;52.136;5.584;2022-11-20T09:16:05;-1.40;99.90
23723;DHT22;12042;52.136;5.584;2022-11-20T09:18:32;-1.30;99.90
23723;DHT22;12042;52.136;5.584;2022-11-20T09:21:03;-1.30;99.90
23723;DHT22;12042;52.136;5.584;2022-11-20T09:23:34;-1.20;99.90
23723;DHT22;12042;52.136;5.584;2022-11-20T09:26:09;-1.20;99.90
23723;DHT22;12042;52.136;5.584;2022-11-20T09:28:35;-1.10;99.90
23723;DHT22;12042;52.136;5.584;2022-11-20T09:31:00;-1.10;99.90
23723;DHT22;12042;52.136;5.584;2022-11-20T09:33:29;-1.10;99.90
23723;DHT22;12042;52.136;5.584;2022-11-20T09:35:55;-1.00;99.90
23723;DHT22;12042;52.136;5.584;2022-11-20T09:38:21;-1.00;99.90
23723;DHT22;12042;52.136;5.584;2022-11-20T09:44:05;-0.90;99.90
23723;DHT22;12042;52.136;5.584;2022-11-20T09:46:37;-0.80;99.90
23723;DHT22;12042;52.136;5.584;2022-11-20T09:52:03;-0.70;99.90
23723;DHT22;12042;52.136;5.584;2022-11-20T09:54:38;-0.60;99.90
23723;DHT22;12042;52.136;5.584;2022-11-20T09:57:13;-0.60;99.90
23723;DHT22;12042;52.136;5.584;2022-11-20T09:59:59;-0.50;99.90
23723;DHT22;12042;52.136;5.584;2022-11-20T10:02:29;-0.40;99.90
23723;DHT22;12042;52.136;5.584;2022-11-20T10:07:58;-0.20;99.90
23723;DHT22;12042;52.136;5.584;2022-11-20T10:10:34;-0.20;99.90
23723;DHT22;12042;52.136;5.584;2022-11-20T10:24:39;0.20;99.90
23723;DHT22;12042;52.136;5.584;2022-11-20T10:27:41;0.30;99.90
23723;DHT22;12042;52.136;5.584;2022-11-20T10:30:16;0.40;99.90
23723;DHT22;12042;52.136;5.584;2022-11-20T10:32:49;0.50;99.90
23723;DHT22;12042;52.136;5.584;2022-11-20T10:38:21;0.60;99.90
23723;DHT22;12042;52.136;5.584;2022-11-20T10:40:59;0.70;99.90
23723;DHT22;12042;52.136;5.584;2022-11-20T10:43:46;0.80;99.90
23723;DHT22;12042;52.136;5.584;2022-11-20T10:46:18;0.80;99.90
23723;DHT22;12042;52.136;5.584;2022-11-20T10:48:45;0.80;99.90
23723;DHT22;12042;52.136;5.584;2022-11-20T10:51:35;0.90;99.90
23723;DHT22;12042;52.136;5.584;2022-11-20T10:54:12;0.90;99.90
23723;DHT22;12042;52.136;5.584;2022-11-20T10:56:47;1.00;99.90
23723;DHT22;12042;52.136;5.584;2022-11-20T11:02:00;1.10;99.90
23723;DHT22;12042;52.136;5.584;2022-11-20T11:04:40;1.20;99.90
23723;DHT22;12042;52.136;5.584;2022-11-20T11:07:13;1.20;99.90
23723;DHT22;12042;52.136;5.584;2022-11-20T11:09:43;1.30;99.90
23723;DHT22;12042;52.136;5.584;2022-11-20T11:12:11;1.30;99.90
23723;DHT22;12042;52.136;5.584;2022-11-20T11:17:30;1.50;99.90
23723;DHT22;12042;52.136;5.584;2022-11-20T11:22:46;1.60;99.90
23723;DHT22;12042;52.136;5.584;2022-11-20T11:25:34;1.70;99.90
23723;DHT22;12042;52.136;5.584;2022-11-20T11:28:04;1.70;99.90
23723;DHT22;12042;52.136;5.584;2022-11-20T11:30:40;1.80;99.90
23723;DHT22;12042;52.136;5.584;2022-11-20T11:33:10;1.80;99.90
23723;DHT22;12042;52.136;5.584;2022-11-20T11:35:48;1.90;99.90
23723;DHT22;12042;52.136;5.584;2022-11-20T11:38:17;1.90;99.90
23723;DHT22;12042;52.136;5.584;2022-11-20T11:40:44;1.90;99.90
23723;DHT22;12042;52.136;5.584;2022-11-20T11:43:33;2.00;99.90
23723;DHT22;12042;52.136;5.584;2022-11-20T11:49:14;2.10;99.90
23723;DHT22;12042;52.136;5.584;2022-11-20T11:52:15;2.20;99.90
23723;DHT22;12042;52.136;5.584;2022-11-20T11:54:53;2.20;99.90
23723;DHT22;12042;52.136;5.584;2022-11-20T11:57:28;2.20;99.90
23723;DHT22;12042;52.136;5.584;2022-11-20T12:02:56;2.20;99.90
23723;DHT22;12042;52.136;5.584;2022-11-20T12:05:28;2.20;99.90
23723;DHT22;12042;52.136;5.584;2022-11-20T12:16:02;2.20;99.90
23723;DHT22;12042;52.136;5.584;2022-11-20T12:18:28;2.20;99.90
23723;DHT22;12042;52.136;5.584;2022-11-20T12:21:31;2.20;99.90
23723;DHT22;12042;52.136;5.584;2022-11-20T12:24:42;2.20;99.90
23723;DHT22;12042;52.136;5.584;2022-11-20T12:30:21;2.20;99.90
23723;DHT22;12042;52.136;5.584;2022-11-20T12:43:48;2.30;99.90
23723;DHT22;12042;52.136;5.584;2022-11-20T12:46:45;2.40;99.90
23723;DHT22;12042;52.136;5.584;2022-11-20T12:49:18;2.40;99.90
23723;DHT22;12042;52.136;5.584;2022-11-20T13:02:52;2.40;99.90
23723;DHT22;12042;52.136;5.584;2022-11-20T13:05:24;2.30;99.90
23723;DHT22;12042;52.136;5.584;2022-11-20T13:07:52;2.40;99.90
23723;DHT22;12042;52.136;5.584;2022-11-20T13:10:33;2.30;99.90
23723;DHT22;12042;52.136;5.584;2022-11-20T13:13:18;2.30;99.90
23723;DHT22;12042;52.136;5.584;2022-11-20T13:15:59;2.30;99.90
23723;DHT22;12042;52.136;5.584;2022-11-20T13:18:26;2.30;99.90
23723;DHT22;12042;52.136;5.584;2022-11-20T13:20:51;2.30;99.90
23723;DHT22;12042;52.136;5.584;2022-11-20T13:23:27;2.30;99.90
23723;DHT22;12042;52.136;5.584;2022-11-20T13:26:15;2.30;99.90
23723;DHT22;12042;52.136;5.584;2022-11-20T13:28:41;2.30;99.90
23723;DHT22;12042;52.136;5.584;2022-11-20T13:31:33;2.30;99.90
23723;DHT22;12042;52.136;5.584;2022-11-20T13:34:03;2.30;99.90
23723;DHT22;12042;52.136;5.584;2022-11-20T13:36:29;2.30;99.90
23723;DHT22;12042;52.136;5.584;2022-11-20T13:38:56;2.30;99.90
23723;DHT22;12042;52.136;5.584;2022-11-20T13:41:33;2.30;99.90
23723;DHT22;12042;52.136;5.584;2022-11-20T13:46:41;2.40;99.90
23723;DHT22;12042;52.136;5.584;2022-11-20T13:49:14;2.40;99.90
23723;DHT22;12042;52.136;5.584;2022-11-20T13:51:47;2.40;99.90
23723;DHT22;12042;52.136;5.584;2022-11-20T13:54:45;2.40;99.90
23723;DHT22;12042;52.136;5.584;2022-11-20T14:02:43;2.50;99.90
23723;DHT22;12042;52.136;5.584;2022-11-20T14:05:22;2.50;99.90
23723;DHT22;12042;52.136;5.584;2022-11-20T14:07:50;2.40;99.90
23723;DHT22;12042;52.136;5.584;2022-11-20T14:10:28;2.50;99.90
23723;DHT22;12042;52.136;5.584;2022-11-20T14:12:54;2.50;99.90
23723;DHT22;12042;52.136;5.584;2022-11-20T14:15:32;2.50;99.90
23723;DHT22;12042;52.136;5.584;2022-11-20T14:17:59;2.50;99.90
23723;DHT22;12042;52.136;5.584;2022-11-20T14:20:29;2.60;99.90
23723;DHT22;12042;52.136;5.584;2022-11-20T14:22:56;2.60;99.90
23723;DHT22;12042;52.136;5.584;2022-11-20T14:25:24;2.60;99.90
23723;DHT22;12042;52.136;5.584;2022-11-20T14:27:54;2.60;99.90
23723;DHT22;12042;52.136;5.584;2022-11-20T14:30:23;2.60;99.90
23723;DHT22;12042;52.136;5.584;2022-11-20T14:32:49;2.60;99.90
23723;DHT22;12042;52.136;5.584;2022-11-20T14:35:37;2.60;99.90
23723;DHT22;12042;52.136;5.584;2022-11-20T14:38:10;2.60;99.90
23723;DHT22;12042;52.136;5.584;2022-11-20T14:40:37;2.50;99.90
23723;DHT22;12042;52.136;5.584;2022-11-20T14:43:22;2.50;99.90
23723;DHT22;12042;52.136;5.584;2022-11-20T14:48:33;2.50;99.90
23723;DHT22;12042;52.136;5.584;2022-11-20T14:51:00;2.50;99.90
23723;DHT22;12042;52.136;5.584;2022-11-20T14:53:26;2.50;99.90
23723;DHT22;12042;52.136;5.584;2022-11-20T14:56:00;2.50;99.90
23723;DHT22;12042;52.136;5.584;2022-11-20T14:58:29;2.50;99.90
23723;DHT22;12042;52.136;5.584;2022-11-20T15:01:06;2.50;99.90
23723;DHT22;12042;52.136;5.584;2022-11-20T15:03:37;2.50;99.90
23723;DHT22;12042;52.136;5.584;2022-11-20T15:06:03;2.40;99.90
23723;DHT22;12042;52.136;5.584;2022-11-20T15:08:29;2.40;99.90
23723;DHT22;12042;52.136;5.584;2022-11-20T15:10:55;2.40;99.90
23723;DHT22;12042;52.136;5.584;2022-11-20T15:15:54;2.40;99.90
23723;DHT22;12042;52.136;5.584;2022-11-20T15:18:28;2.30;99.90
23723;DHT22;12042;52.136;5.584;2022-11-20T15:20:55;2.40;99.90
23723;DHT22;12042;52.136;5.584;2022-11-20T15:23:22;2.30;99.90
23723;DHT22;12042;52.136;5.584;2022-11-20T15:25:48;2.30;99.90
23723;DHT22;12042;52.136;5.584;2022-11-20T15:30:47;2.40;99.90
23723;DHT22;12042;52.136;5.584;2022-11-20T15:33:14;2.40;99.90
23723;DHT22;12042;52.136;5.584;2022-11-20T15:35:40;2.40;99.90
23723;DHT22;12042;52.136;5.584;2022-11-20T15:38:06;2.40;99.90
23723;DHT22;12042;52.136;5.584;2022-11-20T15:40:32;2.40;99.90
23723;DHT22;12042;52.136;5.584;2022-11-20T15:42:57;2.40;99.90
23723;DHT22;12042;52.136;5.584;2022-11-20T15:48:43;2.50;99.90
23723;DHT22;12042;52.136;5.584;2022-11-20T15:53:36;2.50;99.90
23723;DHT22;12042;52.136;5.584;2022-11-20T15:56:02;2.50;99.90
23723;DHT22;12042;52.136;5.584;2022-11-20T15:58:28;2.40;99.90
23723;DHT22;12042;52.136;5.584;2022-11-20T16:00:54;2.40;99.90
23723;DHT22;12042;52.136;5.584;2022-11-20T16:03:19;2.40;99.90
23723;DHT22;12042;52.136;5.584;2022-11-20T16:05:45;2.40;99.90
23723;DHT22;12042;52.136;5.584;2022-11-20T16:08:11;2.40;99.90
23723;DHT22;12042;52.136;5.584;2022-11-20T16:10:37;2.40;99.90
23723;DHT22;12042;52.136;5.584;2022-11-20T16:13:03;2.30;99.90
23723;DHT22;12042;52.136;5.584;2022-11-20T16:15:51;2.40;99.90
23723;DHT22;12042;52.136;5.584;2022-11-20T16:18:19;2.40;99.90
23723;DHT22;12042;52.136;5.584;2022-11-20T16:20:48;2.40;99.90
23723;DHT22;12042;52.136;5.584;2022-11-20T16:23:14;2.40;99.90
23723;DHT22;12042;52.136;5.584;2022-11-20T16:25:41;2.40;99.90
23723;DHT22;12042;52.136;5.584;2022-11-20T16:28:07;2.40;99.90
23723;DHT22;12042;52.136;5.584;2022-11-20T16:30:33;2.40;99.90
23723;DHT22;12042;52.136;5.584;2022-11-20T16:32:59;2.40;99.90
23723;DHT22;12042;52.136;5.584;2022-11-20T16:35:26;2.50;99.90
23723;DHT22;12042;52.136;5.584;2022-11-20T16:37:52;2.50;99.90
23723;DHT22;12042;52.136;5.584;2022-11-20T16:40:18;2.50;99.90
23723;DHT22;12042;52.136;5.584;2022-11-20T16:42:44;2.50;99.90
23723;DHT22;12042;52.136;5.584;2022-11-20T16:45:10;2.50;99.90
23723;DHT22;12042;52.136;5.584;2022-11-20T16:47:36;2.50;99.90
23723;DHT22;12042;52.136;5.584;2022-11-20T16:50:02;2.60;99.90
23723;DHT22;12042;52.136;5.584;2022-11-20T16:52:29;2.60;99.90
23723;DHT22;12042;52.136;5.584;2022-11-20T16:54:54;2.60;99.90
23723;DHT22;12042;52.136;5.584;2022-11-20T16:57:20;2.60;99.90
23723;DHT22;12042;52.136;5.584;2022-11-20T16:59:45;2.60;99.90
23723;DHT22;12042;52.136;5.584;2022-11-20T17:02:11;2.60;99.90
23723;DHT22;12042;52.136;5.584;2022-11-20T17:04:37;2.70;99.90
23723;DHT22;12042;52.136;5.584;2022-11-20T17:07:02;2.70;99.90
23723;DHT22;12042;52.136;5.584;2022-11-20T17:09:28;2.70;99.90
23723;DHT22;12042;52.136;5.584;2022-11-20T17:11:54;2.70;99.90
23723;DHT22;12042;52.136;5.584;2022-11-20T17:14:19;2.70;99.90
23723;DHT22;12042;52.136;5.584;2022-11-20T17:16:45;2.70;99.90
23723;DHT22;12042;52.136;5.584;2022-11-20T17:19:11;2.70;99.90
23723;DHT22;12042;52.136;5.584;2022-11-20T17:21:38;2.70;99.90
23723;DHT22;12042;52.136;5.584;2022-11-20T17:24:06;2.70;99.90
23723;DHT22;12042;52.136;5.584;2022-11-20T17:26:34;2.70;99.90
23723;DHT22;12042;52.136;5.584;2022-11-20T17:29:20;2.70;99.90
23723;DHT22;12042;52.136;5.584;2022-11-20T17:31:48;2.70;99.90
23723;DHT22;12042;52.136;5.584;2022-11-20T17:34:14;2.70;99.90
23723;DHT22;12042;52.136;5.584;2022-11-20T17:36:41;2.70;99.90
23723;DHT22;12042;52.136;5.584;2022-11-20T17:39:10;2.70;99.90
23723;DHT22;12042;52.136;5.584;2022-11-20T17:41:36;2.70;99.90
23723;DHT22;12042;52.136;5.584;2022-11-20T17:44:02;2.70;99.90
23723;DHT22;12042;52.136;5.584;2022-11-20T17:46:32;2.80;99.90
23723;DHT22;12042;52.136;5.584;2022-11-20T17:48:58;2.80;99.90
23723;DHT22;12042;52.136;5.584;2022-11-20T17:51:29;2.80;99.90
23723;DHT22;12042;52.136;5.584;2022-11-20T17:53:58;2.70;99.90
23723;DHT22;12042;52.136;5.584;2022-11-20T17:56:23;2.70;99.90
23723;DHT22;12042;52.136;5.584;2022-11-20T17:59:10;2.70;99.90
23723;DHT22;12042;52.136;5.584;2022-11-20T18:01:37;2.70;99.90
23723;DHT22;12042;52.136;5.584;2022-11-20T18:04:04;2.70;99.90
23723;DHT22;12042;52.136;5.584;2022-11-20T18:06:30;2.80;99.90
23723;DHT22;12042;52.136;5.584;2022-11-20T18:09:00;2.80;99.90
23723;DHT22;12042;52.136;5.584;2022-11-20T18:11:28;2.80;99.90
23723;DHT22;12042;52.136;5.584;2022-11-20T18:13:56;2.80;99.90
23723;DHT22;12042;52.136;5.584;2022-11-20T18:16:43;2.70;99.90
23723;DHT22;12042;52.136;5.584;2022-11-20T18:19:10;2.70;99.90
23723;DHT22;12042;52.136;5.584;2022-11-20T18:21:36;2.70;99.90
23723;DHT22;12042;52.136;5.584;2022-11-20T18:24:01;2.70;99.90
23723;DHT22;12042;52.136;5.584;2022-11-20T18:26:27;2.70;99.90
23723;DHT22;12042;52.136;5.584;2022-11-20T18:28:53;2.80;99.90
23723;DHT22;12042;52.136;5.584;2022-11-20T18:31:18;2.80;99.90
23723;DHT22;12042;52.136;5.584;2022-11-20T18:33:44;2.90;99.90
23723;DHT22;12042;52.136;5.584;2022-11-20T18:36:15;3.00;99.90
23723;DHT22;12042;52.136;5.584;2022-11-20T18:38:42;3.10;99.90
23723;DHT22;12042;52.136;5.584;2022-11-20T18:41:09;3.00;99.90
23723;DHT22;12042;52.136;5.584;2022-11-20T18:43:56;3.00;99.90
23723;DHT22;12042;52.136;5.584;2022-11-20T18:46:40;3.10;99.90
23723;DHT22;12042;52.136;5.584;2022-11-20T18:49:07;3.00;99.90
23723;DHT22;12042;52.136;5.584;2022-11-20T18:51:33;2.90;99.90
23723;DHT22;12042;52.136;5.584;2022-11-20T18:53:58;2.90;99.90
23723;DHT22;12042;52.136;5.584;2022-11-20T18:56:24;2.90;99.90
23723;DHT22;12042;52.136;5.584;2022-11-20T18:58:49;2.90;99.90
23723;DHT22;12042;52.136;5.584;2022-11-20T19:01:15;3.00;99.90
23723;DHT22;12042;52.136;5.584;2022-11-20T19:03:41;2.90;99.90
23723;DHT22;12042;52.136;5.584;2022-11-20T19:06:12;2.90;99.90
23723;DHT22;12042;52.136;5.584;2022-11-20T19:08:38;3.10;99.90
23723;DHT22;12042;52.136;5.584;2022-11-20T19:11:07;3.20;99.90
23723;DHT22;12042;52.136;5.584;2022-11-20T19:13:34;3.40;99.90
23723;DHT22;12042;52.136;5.584;2022-11-20T19:16:14;3.30;99.90
23723;DHT22;12042;52.136;5.584;2022-11-20T19:18:41;3.30;99.90
23723;DHT22;12042;52.136;5.584;2022-11-20T19:21:12;3.40;99.90
23723;DHT22;12042;52.136;5.584;2022-11-20T19:23:38;3.40;99.90
23723;DHT22;12042;52.136;5.584;2022-11-20T19:26:04;3.40;99.90
23723;DHT22;12042;52.136;5.584;2022-11-20T19:28:31;3.40;99.90
23723;DHT22;12042;52.136;5.584;2022-11-20T19:31:08;3.40;99.90
23723;DHT22;12042;52.136;5.584;2022-11-20T19:33:35;3.40;99.90
23723;DHT22;12042;52.136;5.584;2022-11-20T19:36:18;3.30;99.90
23723;DHT22;12042;52.136;5.584;2022-11-20T19:38:46;3.30;99.90
23723;DHT22;12042;52.136;5.584;2022-11-20T19:41:13;3.20;99.90
23723;DHT22;12042;52.136;5.584;2022-11-20T19:43:39;3.00;99.90
23723;DHT22;12042;52.136;5.584;2022-11-20T19:46:05;2.90;99.90
23723;DHT22;12042;52.136;5.584;2022-11-20T19:48:32;2.90;99.90
23723;DHT22;12042;52.136;5.584;2022-11-20T19:51:07;2.90;99.90
23723;DHT22;12042;52.136;5.584;2022-11-20T19:53:32;2.90;99.90
23723;DHT22;12042;52.136;5.584;2022-11-20T19:55:59;2.90;99.90
23723;DHT22;12042;52.136;5.584;2022-11-20T19:58:26;3.00;99.90
23723;DHT22;12042;52.136;5.584;2022-11-20T20:00:53;3.00;99.90
23723;DHT22;12042;52.136;5.584;2022-11-20T20:03:18;3.00;99.90
23723;DHT22;12042;52.136;5.584;2022-11-20T20:05:44;3.10;99.90
23723;DHT22;12042;52.136;5.584;2022-11-20T20:08:10;3.20;99.90
23723;DHT22;12042;52.136;5.584;2022-11-20T20:10:36;3.30;99.90
23723;DHT22;12042;52.136;5.584;2022-11-20T20:13:02;3.20;99.90
23723;DHT22;12042;52.136;5.584;2022-11-20T20:15:27;3.10;99.90
23723;DHT22;12042;52.136;5.584;2022-11-20T20:17:53;3.10;99.90
23723;DHT22;12042;52.136;5.584;2022-11-20T20:20:19;3.00;99.90
23723;DHT22;12042;52.136;5.584;2022-11-20T20:22:45;2.90;99.90
23723;DHT22;12042;52.136;5.584;2022-11-20T20:25:11;2.90;99.90
23723;DHT22;12042;52.136;5.584;2022-11-20T20:27:37;2.90;99.90
23723;DHT22;12042;52.136;5.584;2022-11-20T20:30:04;2.90;99.90
23723;DHT22;12042;52.136;5.584;2022-11-20T20:32:31;2.90;99.90
23723;DHT22;12042;52.136;5.584;2022-11-20T20:34:57;2.90;99.90
23723;DHT22;12042;52.136;5.584;2022-11-20T20:37:22;2.90;99.90
23723;DHT22;12042;52.136;5.584;2022-11-20T20:39:48;2.90;99.90
23723;DHT22;12042;52.136;5.584;2022-11-20T20:42:13;2.80;99.90
23723;DHT22;12042;52.136;5.584;2022-11-20T20:44:39;3.00;99.90
23723;DHT22;12042;52.136;5.584;2022-11-20T20:47:32;3.10;99.90
23723;DHT22;12042;52.136;5.584;2022-11-20T20:49:58;3.20;99.90
23723;DHT22;12042;52.136;5.584;2022-11-20T20:52:24;3.40;99.90
23723;DHT22;12042;52.136;5.584;2022-11-20T20:54:53;3.50;99.90
23723;DHT22;12042;52.136;5.584;2022-11-20T20:57:20;3.70;99.90
23723;DHT22;12042;52.136;5.584;2022-11-20T20:59:48;3.70;99.90
23723;DHT22;12042;52.136;5.584;2022-11-20T21:02:13;3.40;99.90
23723;DHT22;12042;52.136;5.584;2022-11-20T21:04:39;3.40;99.90
23723;DHT22;12042;52.136;5.584;2022-11-20T21:07:05;3.40;99.90
23723;DHT22;12042;52.136;5.584;2022-11-20T21:09:30;3.40;99.90
23723;DHT22;12042;52.136;5.584;2022-11-20T21:11:56;3.30;99.90
23723;DHT22;12042;52.136;5.584;2022-11-20T21:14:21;3.30;99.90
23723;DHT22;12042;52.136;5.584;2022-11-20T21:16:47;3.30;99.90
23723;DHT22;12042;52.136;5.584;2022-11-20T21:19:13;3.40;99.90
23723;DHT22;12042;52.136;5.584;2022-11-20T21:21:38;3.40;99.90
23723;DHT22;12042;52.136;5.584;2022-11-20T21:24:22;3.30;99.90
23723;DHT22;12042;52.136;5.584;2022-11-20T21:26:48;3.20;99.90
23723;DHT22;12042;52.136;5.584;2022-11-20T21:29:19;3.20;99.90
23723;DHT22;12042;52.136;5.584;2022-11-20T21:31:45;3.30;99.90
23723;DHT22;12042;52.136;5.584;2022-11-20T21:34:12;3.50;99.90
23723;DHT22;12042;52.136;5.584;2022-11-20T21:36:38;3.50;99.90
23723;DHT22;12042;52.136;5.584;2022-11-20T21:39:03;3.40;99.90
23723;DHT22;12042;52.136;5.584;2022-11-20T21:41:29;3.40;99.90
23723;DHT22;12042;52.136;5.584;2022-11-20T21:43:56;3.20;99.90
23723;DHT22;12042;52.136;5.584;2022-11-20T21:46:23;3.20;99.90
23723;DHT22;12042;52.136;5.584;2022-11-20T21:48:48;3.30;99.90
23723;DHT22;12042;52.136;5.584;2022-11-20T21:51:16;3.30;99.90
23723;DHT22;12042;52.136;5.584;2022-11-20T21:53:43;3.30;99.90
23723;DHT22;12042;52.136;5.584;2022-11-20T21:56:11;3.40;99.90
23723;DHT22;12042;52.136;5.584;2022-11-20T21:58:38;3.40;99.90
23723;DHT22;12042;52.136;5.584;2022-11-20T22:01:20;3.20;99.90
23723;DHT22;12042;52.136;5.584;2022-11-20T22:03:51;3.10;99.90
23723;DHT22;12042;52.136;5.584;2022-11-20T22:06:18;3.10;99.90
23723;DHT22;12042;52.136;5.584;2022-11-20T22:08:43;3.10;99.90
23723;DHT22;12042;52.136;5.584;2022-11-20T22:11:12;3.10;99.90
23723;DHT22;12042;52.136;5.584;2022-11-20T22:13:38;3.10;99.90
23723;DHT22;12042;52.136;5.584;2022-11-20T22:16:23;3.20;99.90
23723;DHT22;12042;52.136;5.584;2022-11-20T22:18:53;3.00;99.90
23723;DHT22;12042;52.136;5.584;2022-11-20T22:21:21;3.40;99.90
23723;DHT22;12042;52.136;5.584;2022-11-20T22:23:47;3.50;99.90
23723;DHT22;12042;52.136;5.584;2022-11-20T22:26:20;3.50;99.90
23723;DHT22;12042;52.136;5.584;2022-11-20T22:28:47;3.60;99.90
23723;DHT22;12042;52.136;5.584;2022-11-20T22:31:13;3.80;99.90
23723;DHT22;12042;52.136;5.584;2022-11-20T22:33:39;3.90;99.90
23723;DHT22;12042;52.136;5.584;2022-11-20T22:36:10;4.00;99.90
23723;DHT22;12042;52.136;5.584;2022-11-20T22:38:37;4.10;99.90
23723;DHT22;12042;52.136;5.584;2022-11-20T22:41:20;4.10;99.90
23723;DHT22;12042;52.136;5.584;2022-11-20T22:43:47;4.00;99.90
23723;DHT22;12042;52.136;5.584;2022-11-20T22:46:17;4.00;99.90
23723;DHT22;12042;52.136;5.584;2022-11-20T22:48:53;3.90;99.90
23723;DHT22;12042;52.136;5.584;2022-11-20T22:51:21;3.80;99.90
23723;DHT22;12042;52.136;5.584;2022-11-20T22:53:48;3.80;99.90
23723;DHT22;12042;52.136;5.584;2022-11-20T22:56:15;3.80;99.90
23723;DHT22;12042;52.136;5.584;2022-11-20T22:58:43;3.50;99.90
23723;DHT22;12042;52.136;5.584;2022-11-20T23:01:13;3.40;99.90
